ZKTFL NZAR-NZAA
Flight info
| Callsign | ZKTFL |
|---|---|
| Flight time | 0h -11m |
| Altitude | 1500 |
| Route | NZAR NZAA |
| Aircraft | PC12/L-S/L |
Departure
| Time | 2026-05-04 07:16 |
|---|---|
| Airport | Ardmore Airport (NZAR) |
Arrival
| Time | 2026-05-04 07:04 |
|---|---|
| Airport | Auckland International Airport (NZAA) |
| Time | Latitude | Longitude | Altitude | Speed | Heading |
|---|---|---|---|---|---|
| 2026-05-04 07:04 | -37.03219 | 174.97628 | 107 ft | 0 kts | 46° |
| 2026-05-04 07:12 | -37.03165 | 174.97448 | 112 ft | 20 kts | 224° |
| 2026-05-04 07:12 | -37.03274 | 174.97309 | 110 ft | 24 kts | 226° |
| 2026-05-04 07:12 | -37.03404 | 174.97142 | 111 ft | 25 kts | 226° |
| 2026-05-04 07:12 | -37.03499 | 174.97023 | 111 ft | 17 kts | 224° |
| 2026-05-04 07:13 | -37.03489 | 174.96927 | 112 ft | 5 kts | 44° |
| 2026-05-04 07:13 | -37.03482 | 174.96944 | 112 ft | 0 kts | 48° |
| 2026-05-04 07:15 | -37.03446 | 174.96991 | 111 ft | 31 kts | 49° |
| 2026-05-04 07:15 | -37.03144 | 174.97371 | 115 ft | 87 kts | 45° |
| 2026-05-04 07:15 | -37.02652 | 174.97987 | 262 ft | 108 kts | 45° |
| 2026-05-04 07:15 | -37.02133 | 174.98725 | 650 ft | 120 kts | 51° |
| 2026-05-04 07:16 | -37.01554 | 174.99606 | 1080 ft | 138 kts | 59° |
| 2026-05-04 07:16 | -37.01509 | 175.00829 | 1432 ft | 164 kts | 110° |
| 2026-05-04 07:16 | -37.02155 | 175.01762 | 1327 ft | 184 kts | 143° |
| 2026-05-04 07:16 | -37.03412 | 175.02100 | 1287 ft | 195 kts | 187° |
| 2026-05-04 07:17 | -37.04509 | 175.01290 | 1270 ft | 182 kts | 225° |
| 2026-05-04 07:17 | -37.05296 | 175.00066 | 1282 ft | 180 kts | 231° |
| 2026-05-04 07:17 | -37.06076 | 174.98835 | 1286 ft | 181 kts | 230° |
| 2026-05-04 07:17 | -37.06750 | 174.97510 | 1282 ft | 181 kts | 240° |
| 2026-05-04 07:18 | -37.07340 | 174.96138 | 1399 ft | 176 kts | 240° |
| 2026-05-04 07:18 | -37.07937 | 174.94757 | 1529 ft | 191 kts | 240° |
| 2026-05-04 07:18 | -37.08612 | 174.93201 | 1512 ft | 213 kts | 240° |
| 2026-05-04 07:18 | -37.09335 | 174.91545 | 1510 ft | 225 kts | 240° |
| 2026-05-04 07:19 | -37.10105 | 174.89795 | 1516 ft | 233 kts | 240° |
| 2026-05-04 07:19 | -37.10771 | 174.87944 | 1493 ft | 235 kts | 257° |
| 2026-05-04 07:19 | -37.10738 | 174.85915 | 1492 ft | 233 kts | 279° |
| 2026-05-04 07:19 | -37.10471 | 174.84111 | 1483 ft | 186 kts | 286° |
| 2026-05-04 07:20 | -37.09817 | 174.82937 | 1478 ft | 157 kts | 321° |
| 2026-05-04 07:20 | -37.08883 | 174.82224 | 1488 ft | 159 kts | 340° |
| 2026-05-04 07:20 | -37.07842 | 174.81695 | 1224 ft | 158 kts | 340° |
| 2026-05-04 07:20 | -37.06855 | 174.81185 | 854 ft | 149 kts | 340° |
| 2026-05-04 07:22 | -37.05850 | 174.74169 | 871 ft | 102 kts | 327° |
| 2026-05-04 07:22 | -37.05176 | 174.73963 | 907 ft | 111 kts | 348° |
| 2026-05-04 07:23 | -37.04397 | 174.73713 | 928 ft | 113 kts | 349° |
| 2026-05-04 07:23 | -37.03659 | 174.73495 | 849 ft | 107 kts | 350° |
| 2026-05-04 07:23 | -37.02959 | 174.73427 | 805 ft | 98 kts | 26° |
| 2026-05-04 07:23 | -37.02533 | 174.74081 | 663 ft | 99 kts | 65° |
| 2026-05-04 07:24 | -37.02247 | 174.74847 | 490 ft | 95 kts | 70° |
| 2026-05-04 07:24 | -37.02033 | 174.75591 | 356 ft | 91 kts | 75° |
| 2026-05-04 07:24 | -37.01837 | 174.76333 | 230 ft | 89 kts | 74° |
| 2026-05-04 07:24 | -37.01648 | 174.77022 | 90 ft | 80 kts | 74° |
| 2026-05-04 07:25 | -37.01472 | 174.77657 | 24 ft | 71 kts | 74° |
| 2026-05-04 07:26 | -37.00854 | 174.79200 | 22 ft | 30 kts | 70° |
| 2026-05-04 07:27 | -37.00753 | 174.79322 | 22 ft | 23 kts | 9° |
| 2026-05-04 07:27 | -37.00652 | 174.79441 | 22 ft | 22 kts | 340° |
| 2026-05-04 07:27 | -37.00520 | 174.79385 | 22 ft | 17 kts | 342° |
| 2026-05-04 07:27 | -37.00488 | 174.79337 | 22 ft | 10 kts | 243° |
| 2026-05-04 07:28 | -37.00492 | 174.79328 | 22 ft | 0 kts | 176° |
| 2026-05-04 07:28 | -37.00494 | 174.79329 | 22 ft | 0 kts | 162° |
| 2026-05-04 07:28 | -37.00496 | 174.79330 | 22 ft | 0 kts | 163° |